Terminal Aerodrome Forecast
Issued by NWS

Home | Current Version | Previous Version | Text Only | Print | Product List | Glossary On
Versions: 1 2 3 4 5 6 7 8 9 10 11 12 13 14 15 16 17 18 19
552
FTUS42 KFFC 191739
TAFRYY
TAF
KRYY 191739Z 1918/2018 15006KT P6SM FEW025 BKN150
     FM192100 14005KT P6SM BKN025 BKN100
     FM200100 15004KT P6SM -RA OVC015
     FM200400 20006KT 6SM -RA BR OVC007
     FM200900 20008KT 4SM BR OVC004
     FM201600 22006KT 4SM BR SCT004 BKN015=

USA.gov is the U.S. government's official web portal to all federal, state and local government web resources and services.